Time;durP1;ratioP1;P1;durP2;ratioP2;P2;SDS_P1;SDS_P2;PMS_P1;PMS_P2;Temp;Humidity;BMP_temperature;BMP_pressure;BME280_temperature;BME280_humidity;BME280_pressure;Samples;Min_cycle;Max_cycle;Signal;HPM_P1;HPM_P2
2023/07/04 00:00:41;;;;;;;7.70;4.70;;;;;;;25.39;61.46;100367.33;108468;1281;21994;-61
2023/07/04 00:03:07;;;;;;;7.50;5.10;;;;;;;25.38;61.63;100365.92;108543;1281;24166;-60
2023/07/04 00:05:33;;;;;;;7.10;4.70;;;;;;;25.39;61.59;100367.71;108505;1274;22001;-60
2023/07/04 00:07:59;;;;;;;8.70;5.70;;;;;;;25.40;61.75;100370.70;108473;1281;21977;-71
2023/07/04 00:10:25;;;;;;;5.90;4.90;;;;;;;25.39;61.71;100371.78;108464;1280;21981;-60
2023/07/04 00:12:51;;;;;;;6.00;5.00;;;;;;;25.38;61.63;100376.23;108511;1279;21977;-60
2023/07/04 00:15:16;;;;;;;5.60;4.60;;;;;;;25.36;61.62;100377.79;108541;1281;21982;-70
2023/07/04 00:17:42;;;;;;;6.60;4.70;;;;;;;25.36;61.68;100377.98;108516;1279;21994;-60
2023/07/04 00:20:09;;;;;;;6.40;4.90;;;;;;;25.35;61.76;100374.09;108488;1274;22018;-70
2023/07/04 00:22:36;;;;;;;6.90;4.60;;;;;;;25.35;61.69;100374.25;108487;1278;21980;-71
2023/07/04 00:25:01;;;;;;;8.70;5.30;;;;;;;25.35;61.92;100374.28;108409;1281;22023;-70
2023/07/04 00:27:27;;;;;;;5.00;4.40;;;;;;;25.36;62.17;100379.26;108438;1280;22183;-65
2023/07/04 00:29:53;;;;;;;6.40;4.60;;;;;;;25.37;62.07;100384.74;108482;1278;21986;-70
2023/07/04 00:32:18;;;;;;;6.60;4.70;;;;;;;25.39;62.41;100387.10;108387;1280;21981;-60
2023/07/04 00:34:45;;;;;;;5.80;4.70;;;;;;;25.38;62.28;100387.85;108444;1280;21984;-60
2023/07/04 00:37:11;;;;;;;7.90;4.70;;;;;;;25.39;62.15;100386.55;108473;1277;21988;-70
2023/07/04 00:39:37;;;;;;;6.30;4.80;;;;;;;25.40;62.10;100381.27;108419;1281;21984;-70
2023/07/04 00:42:07;;;;;;;5.80;4.50;;;;;;;25.42;62.14;100382.24;108437;1281;21980;-60
2023/07/04 00:44:37;;;;;;;8.30;5.20;;;;;;;25.43;62.17;100381.95;108494;1277;21985;-61
2023/07/04 00:47:10;;;;;;;8.20;4.80;;;;;;;25.44;62.35;100380.48;108420;1281;21973;-60
2023/07/04 00:49:43;;;;;;;8.30;5.20;;;;;;;25.44;62.34;100383.88;108273;1270;22566;-60
2023/07/04 00:52:25;;;;;;;6.90;5.50;;;;;;;25.43;62.37;100386.64;108416;1280;21983;-70
2023/07/04 00:54:53;;;;;;;6.90;5.20;;;;;;;25.39;62.36;100389.58;108251;1274;22018;-70
2023/07/04 00:57:22;;;;;;;9.00;5.60;;;;;;;25.34;62.49;100393.08;108486;1281;21979;-69
2023/07/04 00:59:51;;;;;;;5.90;5.00;;;;;;;25.28;62.55;100392.58;108484;1277;21988;-60
2023/07/04 01:02:18;;;;;;;5.50;4.60;;;;;;;25.25;62.64;100393.89;108505;1273;23052;-61
2023/07/04 01:04:45;;;;;;;6.40;4.80;;;;;;;25.23;62.70;100394.54;108529;1273;21990;-60
2023/07/04 01:07:35;;;;;;;6.20;5.10;;;;;;;25.22;62.61;100392.63;108497;1281;21978;-69
2023/07/04 01:10:05;;;;;;;;;;;;;;;25.22;62.68;100393.23;108468;1277;21963;-69
2023/07/04 01:12:31;;;;;;;7.40;5.30;;;;;;;25.20;62.74;100394.23;108465;1280;21970;-60
2023/07/04 01:14:59;;;;;;;6.10;5.50;;;;;;;25.17;62.62;100394.83;108234;1279;22072;-70
2023/07/04 01:17:25;;;;;;;5.40;4.40;;;;;;;25.15;62.82;100394.05;108452;1273;22015;-63
2023/07/04 01:19:51;;;;;;;7.50;5.60;;;;;;;25.14;62.77;100393.95;108457;1278;21984;-60
2023/07/04 01:22:31;;;;;;;9.40;5.50;;;;;;;25.14;62.97;100392.00;108259;1280;21982;-60
2023/07/04 01:25:02;;;;;;;7.30;5.20;;;;;;;25.14;63.00;100393.68;108322;1281;21986;-69
2023/07/04 01:27:30;;;;;;;6.20;5.30;;;;;;;25.11;62.88;100396.73;108499;1277;21988;-70
2023/07/04 01:30:00;;;;;;;7.80;5.10;;;;;;;25.08;62.88;100402.09;108238;1278;22023;-70
2023/07/04 01:32:26;;;;;;;;;;;;;;;25.09;62.93;100402.60;108435;1281;21966;-60
2023/07/04 01:34:58;;;;;;;6.50;4.60;;;;;;;25.09;62.97;100407.40;108466;1277;22023;-60
2023/07/04 01:37:25;;;;;;;7.20;5.00;;;;;;;25.06;63.04;100406.38;108477;1272;21982;-60
2023/07/04 01:39:50;;;;;;;7.70;5.50;;;;;;;25.01;63.34;100407.67;108441;1278;22008;-69
2023/07/04 01:42:17;;;;;;;7.80;5.40;;;;;;;24.99;63.16;100406.70;108521;1280;21967;-60
2023/07/04 01:44:43;;;;;;;8.70;5.20;;;;;;;25.00;63.31;100409.00;108562;1281;21999;-70
2023/07/04 01:47:09;;;;;;;9.40;5.80;;;;;;;24.99;63.34;100411.02;108448;1277;21988;-69
2023/07/04 01:49:34;;;;;;;7.70;5.00;;;;;;;25.00;63.60;100412.91;108444;1271;21986;-60
2023/07/04 01:52:00;;;;;;;8.50;4.80;;;;;;;25.00;63.65;100417.60;108400;1274;21989;-60
2023/07/04 01:54:25;;;;;;;7.30;6.00;;;;;;;25.00;63.61;100415.27;108288;1281;188748;-60
2023/07/04 01:56:52;;;;;;;8.30;5.30;;;;;;;25.00;63.55;100422.61;108483;1280;22004;-69
2023/07/04 01:59:18;;;;;;;7.60;5.40;;;;;;;24.99;63.56;100421.08;108449;1280;22228;-60
2023/07/04 02:01:44;;;;;;;10.20;5.50;;;;;;;24.96;63.47;100423.23;108522;1279;21984;-60
2023/07/04 02:04:10;;;;;;;8.00;5.50;;;;;;;24.95;63.52;100421.55;108542;1278;21987;-60
2023/07/04 02:06:37;;;;;;;10.70;5.40;;;;;;;24.94;63.57;100423.20;108446;1280;21987;-69
2023/07/04 02:09:03;;;;;;;7.70;5.80;;;;;;;24.95;63.59;100426.38;108540;1276;21975;-69
2023/07/04 02:11:28;;;;;;;7.40;5.40;;;;;;;24.94;63.58;100427.71;108523;1280;21980;-69
2023/07/04 02:13:55;;;;;;;5.20;4.60;;;;;;;24.92;63.23;100429.31;108464;1281;21998;-69
2023/07/04 02:16:20;;;;;;;10.10;5.80;;;;;;;24.86;63.25;100428.98;108474;1281;22020;-69
2023/07/04 02:18:47;;;;;;;6.80;5.20;;;;;;;24.84;63.14;100433.80;108421;1281;21993;-60
2023/07/04 02:21:13;;;;;;;9.90;6.10;;;;;;;24.78;63.30;100439.77;108440;1279;21983;-68
2023/07/04 02:23:40;;;;;;;9.20;5.70;;;;;;;24.73;63.32;100444.29;108534;1280;21992;-68
2023/07/04 02:26:05;;;;;;;9.60;6.20;;;;;;;24.69;63.43;100445.98;108475;1280;21995;-68
2023/07/04 02:28:31;;;;;;;8.60;5.60;;;;;;;24.66;63.71;100445.65;108504;1275;21991;-67
2023/07/04 02:30:58;;;;;;;8.30;5.70;;;;;;;24.64;63.81;100447.71;108553;1281;21989;-60
2023/07/04 02:33:23;;;;;;;7.90;5.80;;;;;;;24.66;63.82;100449.77;108543;1278;21978;-59
2023/07/04 02:35:49;;;;;;;7.00;5.70;;;;;;;24.64;63.75;100448.81;108533;1281;21983;-68
2023/07/04 02:38:16;;;;;;;7.80;5.40;;;;;;;24.62;64.05;100448.38;108542;1281;21996;-67
2023/07/04 02:40:45;;;;;;;6.70;5.30;;;;;;;24.62;64.21;100451.81;108494;1280;21981;-59
2023/07/04 02:43:11;;;;;;;8.30;5.60;;;;;;;24.63;64.45;100452.84;108518;1281;21981;-68
2023/07/04 02:45:37;;;;;;;8.00;5.60;;;;;;;24.63;64.55;100455.12;108446;1277;22161;-68
2023/07/04 02:48:02;;;;;;;9.90;6.00;;;;;;;24.64;64.58;100459.36;108428;1277;22272;-64
2023/07/04 02:50:28;;;;;;;6.90;5.00;;;;;;;24.67;64.68;100462.95;108441;1281;21990;-69
2023/07/04 02:52:54;;;;;;;8.30;5.90;;;;;;;24.70;64.78;100467.29;108408;1281;21999;-68
2023/07/04 02:55:20;;;;;;;7.10;6.00;;;;;;;24.72;65.05;100466.98;108423;1277;21990;-69
2023/07/04 02:57:46;;;;;;;9.60;6.30;;;;;;;24.72;65.05;100467.85;108467;1274;21984;-68
2023/07/04 03:00:12;;;;;;;6.70;5.50;;;;;;;24.73;65.04;100466.92;108476;1280;21975;-68
2023/07/04 03:02:39;;;;;;;7.70;5.90;;;;;;;24.75;65.17;100468.85;108466;1273;22024;-60
2023/07/04 03:05:05;;;;;;;8.40;5.90;;;;;;;24.78;65.53;100472.11;108431;1273;21985;-60
2023/07/04 03:07:31;;;;;;;20.20;7.50;;;;;;;24.82;65.64;100474.16;108476;1280;22000;-68
2023/07/04 03:09:57;;;;;;;8.90;6.10;;;;;;;24.86;65.78;100476.17;109635;1276;21961;-69
2023/07/04 03:12:22;;;;;;;9.10;6.30;;;;;;;24.91;65.90;100475.16;110442;1281;21905;-60
2023/07/04 03:14:48;;;;;;;8.00;5.90;;;;;;;24.95;66.08;100478.59;110454;1281;21902;-60
2023/07/04 03:17:13;;;;;;;7.70;6.20;;;;;;;25.01;66.26;100475.11;109402;1276;21993;-60
2023/07/04 03:19:39;;;;;;;8.40;6.70;;;;;;;25.06;66.74;100473.89;108472;1280;21986;-68
2023/07/04 03:22:05;;;;;;;10.20;7.30;;;;;;;25.15;66.84;100475.38;108427;1276;21989;-60
2023/07/04 03:24:31;;;;;;;10.40;6.80;;;;;;;25.24;66.86;100471.56;108448;1274;21992;-59
2023/07/04 03:26:57;;;;;;;10.40;7.50;;;;;;;25.31;66.94;100468.70;108420;1281;21988;-60
2023/07/04 03:29:22;;;;;;;15.30;6.90;;;;;;;25.38;67.26;100466.88;108527;1281;21983;-68
2023/07/04 03:31:48;;;;;;;14.20;7.80;;;;;;;25.46;67.39;100469.94;108460;1273;21985;-59
2023/07/04 03:34:14;;;;;;;9.60;6.30;;;;;;;25.53;67.54;100472.11;108447;1277;22000;-60
2023/07/04 03:36:40;;;;;;;9.60;7.10;;;;;;;25.60;67.76;100470.35;108461;1276;21983;-60
2023/07/04 03:39:06;;;;;;;13.00;6.40;;;;;;;25.67;68.07;100473.08;108448;1281;22018;-69
2023/07/04 03:41:32;;;;;;;8.30;6.10;;;;;;;25.74;68.10;100475.27;108455;1281;22021;-68
2023/07/04 03:44:00;;;;;;;9.20;6.20;;;;;;;25.82;68.34;100476.83;108542;1281;21990;-67
2023/07/04 03:46:26;;;;;;;8.70;5.70;;;;;;;25.90;68.26;100476.25;108432;1280;21981;-60
2023/07/04 03:48:52;;;;;;;13.70;6.70;;;;;;;25.99;68.53;100472.13;108494;1281;21986;-68
2023/07/04 03:51:17;;;;;;;9.60;6.30;;;;;;;26.08;68.69;100472.55;108489;1273;21989;-60
2023/07/04 03:53:43;;;;;;;10.20;5.90;;;;;;;26.17;68.49;100470.31;108480;1273;21985;-69
2023/07/04 03:56:09;;;;;;;12.90;6.10;;;;;;;26.26;68.76;100473.38;108456;1276;21988;-69
2023/07/04 03:58:35;;;;;;;8.50;6.00;;;;;;;26.36;68.62;100474.38;108490;1276;21977;-59
2023/07/04 04:01:01;;;;;;;11.20;6.70;;;;;;;26.46;68.70;100476.14;108448;1273;22445;-69
2023/07/04 04:03:27;;;;;;;6.80;6.10;;;;;;;26.54;68.65;100476.95;108469;1281;21985;-60
2023/07/04 04:05:53;;;;;;;12.00;6.40;;;;;;;26.62;68.57;100475.08;108429;1280;21984;-60
2023/07/04 04:08:19;;;;;;;7.30;5.80;;;;;;;26.69;68.56;100474.52;108516;1273;21981;-60
2023/07/04 04:10:45;;;;;;;7.70;5.40;;;;;;;26.76;68.59;100476.83;108474;1276;21986;-68
2023/07/04 04:13:11;;;;;;;8.50;5.30;;;;;;;26.85;68.85;100479.08;108506;1277;21988;-68
2023/07/04 04:15:36;;;;;;;6.40;5.60;;;;;;;26.93;68.81;100475.59;108446;1281;21993;-69
2023/07/04 04:18:02;;;;;;;6.50;5.00;;;;;;;27.02;69.00;100472.13;108447;1277;21981;-60
2023/07/04 04:20:29;;;;;;;7.40;5.80;;;;;;;27.11;68.69;100466.55;108470;1277;21988;-59
2023/07/04 04:22:54;;;;;;;10.60;5.80;;;;;;;27.20;68.46;100469.63;108487;1277;21986;-65
2023/07/04 04:25:20;;;;;;;7.60;5.40;;;;;;;27.30;68.35;100469.94;108436;1276;21988;-60
2023/07/04 04:27:46;;;;;;;7.00;6.00;;;;;;;27.40;68.33;100464.05;108478;1281;22024;-60
2023/07/04 04:30:12;;;;;;;9.60;6.40;;;;;;;27.49;68.16;100463.33;108440;1276;21998;-68
2023/07/04 04:32:39;;;;;;;8.30;6.50;;;;;;;27.55;68.06;100460.69;108471;1277;21987;-69
2023/07/04 04:35:06;;;;;;;9.50;5.70;;;;;;;27.63;68.45;100465.77;108488;1277;21991;-71
2023/07/04 04:37:34;;;;;;;8.60;5.70;;;;;;;27.74;68.23;100469.02;108497;1277;23030;-60
2023/07/04 04:39:59;;;;;;;8.00;5.80;;;;;;;27.86;68.06;100472.05;108433;1281;21989;-69
2023/07/04 04:42:26;;;;;;;6.70;4.90;;;;;;;27.97;68.01;100473.77;108500;1281;23626;-70
2023/07/04 04:44:53;;;;;;;7.80;5.00;;;;;;;28.10;68.55;100475.95;108584;1277;21999;-71
2023/07/04 04:47:22;;;;;;;6.10;4.80;;;;;;;28.24;68.17;100473.30;108636;1274;21990;-72
2023/07/04 04:49:50;;;;;;;7.30;5.30;;;;;;;28.38;67.53;100477.25;108621;1277;21986;-69
2023/07/04 04:52:16;;;;;;;7.80;5.10;;;;;;;28.47;67.46;100480.94;108526;1281;21992;-59
2023/07/04 04:54:42;;;;;;;6.20;4.80;;;;;;;28.61;67.41;100479.77;108555;1276;22450;-69
2023/07/04 04:57:07;;;;;;;6.80;4.70;;;;;;;28.74;67.24;100478.60;108409;1281;21994;-69
2023/07/04 04:59:34;;;;;;;6.10;4.40;;;;;;;28.91;67.70;100473.56;108470;1281;21986;-59
2023/07/04 05:02:00;;;;;;;7.20;4.80;;;;;;;29.12;67.70;100470.82;108394;1276;22021;-69
2023/07/04 05:04:26;;;;;;;5.60;4.40;;;;;;;29.36;67.65;100471.78;108492;1281;21985;-60
2023/07/04 05:06:51;;;;;;;5.20;4.60;;;;;;;29.57;67.79;100471.64;108447;1281;21994;-60
2023/07/04 05:09:17;;;;;;;7.00;4.40;;;;;;;29.77;67.28;100474.02;108471;1281;21977;-70
2023/07/04 05:11:43;;;;;;;7.40;4.40;;;;;;;29.95;66.74;100471.91;108427;1281;22067;-60
2023/07/04 05:14:08;;;;;;;6.80;4.40;;;;;;;30.10;66.17;100470.31;108380;1271;21990;-60
2023/07/04 05:16:34;;;;;;;8.70;4.50;;;;;;;30.27;66.31;100468.86;108497;1270;21983;-60
2023/07/04 05:19:01;;;;;;;6.40;4.60;;;;;;;30.48;65.34;100472.33;108418;1276;22093;-60
2023/07/04 05:21:26;;;;;;;6.50;4.70;;;;;;;30.61;64.62;100475.64;108375;1277;22093;-60
2023/07/04 05:23:52;;;;;;;7.40;4.60;;;;;;;30.79;65.30;100474.52;108428;1281;21981;-60
2023/07/04 05:26:19;;;;;;;4.70;4.20;;;;;;;31.05;64.99;100478.34;108529;1276;21979;-60
2023/07/04 05:28:45;;;;;;;5.80;4.80;;;;;;;31.29;64.14;100477.66;108454;1273;21997;-61
2023/07/04 05:31:14;;;;;;;5.90;4.40;;;;;;;31.48;63.76;100478.18;108468;1276;21986;-69
2023/07/04 05:33:40;;;;;;;5.70;4.50;;;;;;;31.72;63.66;100473.35;108487;1280;22004;-69
2023/07/04 05:36:17;;;;;;;6.90;4.90;;;;;;;31.96;62.87;100470.61;108462;1277;21977;-60
2023/07/04 05:38:43;;;;;;;6.20;4.50;;;;;;;32.20;62.82;100471.66;108476;1281;21980;-70
2023/07/04 05:41:10;;;;;;;5.90;4.70;;;;;;;32.43;62.30;100469.16;108448;1276;21984;-69
2023/07/04 05:43:36;;;;;;;7.70;5.10;;;;;;;32.65;62.12;100472.64;108488;1281;21979;-60
2023/07/04 05:46:02;;;;;;;5.60;4.80;;;;;;;32.87;61.51;100475.85;108452;1280;21987;-61
2023/07/04 05:48:29;;;;;;;5.30;4.30;;;;;;;33.04;60.69;100477.16;108456;1281;21985;-60
2023/07/04 05:50:56;;;;;;;6.50;5.00;;;;;;;33.17;60.15;100478.36;108441;1277;21971;-71
2023/07/04 05:53:30;;;;;;;5.40;4.30;;;;;;;33.32;60.16;100477.30;108401;1281;22149;-67
2023/07/04 05:56:07;;;;;;;6.90;4.10;;;;;;;33.51;59.39;100482.04;108403;1273;21983;-71
2023/07/04 05:58:34;;;;;;;6.90;3.80;;;;;;;33.68;58.49;100482.58;108423;1281;22005;-71
2023/07/04 06:01:16;;;;;;;5.00;4.10;;;;;;;33.85;58.72;100479.61;108442;1281;21982;-71
2023/07/04 06:03:43;;;;;;;6.40;4.00;;;;;;;34.05;57.59;100476.70;108432;1277;21990;-70
2023/07/04 06:06:22;;;;;;;7.20;4.00;;;;;;;34.17;57.96;100481.95;108480;1281;21982;-70
2023/07/04 06:08:49;;;;;;;6.20;3.70;;;;;;;34.45;56.48;100482.31;108484;1281;22001;-70
2023/07/04 06:11:15;;;;;;;4.90;3.40;;;;;;;34.65;56.07;100483.14;108384;1276;21989;-60
2023/07/04 06:13:41;;;;;;;5.90;3.60;;;;;;;34.82;56.22;100481.82;108451;1277;21970;-68
2023/07/04 06:16:07;;;;;;;5.20;3.50;;;;;;;35.01;55.76;100479.63;108536;1281;21978;-60
2023/07/04 06:18:33;;;;;;;9.00;3.60;;;;;;;35.25;55.29;100479.04;108496;1277;21979;-70
2023/07/04 06:21:08;;;;;;;5.90;3.40;;;;;;;35.51;54.71;100481.92;108548;1276;21984;-60
2023/07/04 06:23:34;;;;;;;4.70;3.30;;;;;;;35.75;54.10;100484.44;108619;1276;21984;-60
2023/07/04 06:25:59;;;;;;;4.60;3.60;;;;;;;35.93;53.11;100483.09;109123;1268;21985;-60
2023/07/04 06:28:25;;;;;;;3.80;3.10;;;;;;;36.04;52.64;100482.91;108303;1277;21998;-69
2023/07/04 06:30:51;;;;;;;5.10;3.40;;;;;;;36.20;52.55;100480.83;108397;1280;22201;-69
2023/07/04 06:33:17;;;;;;;4.90;3.10;;;;;;;36.37;52.06;100482.10;108438;1281;22010;-71
2023/07/04 06:35:42;;;;;;;5.90;3.60;;;;;;;36.44;50.44;100488.07;108470;1281;21955;-61
2023/07/04 06:38:09;;;;;;;6.40;3.20;;;;;;;36.46;49.82;100484.40;108504;1281;21967;-60
2023/07/04 06:40:35;;;;;;;7.50;3.30;;;;;;;36.59;50.46;100482.38;108505;1281;21987;-60
2023/07/04 06:43:01;;;;;;;4.60;3.30;;;;;;;36.81;50.04;100482.54;108515;1274;21983;-70
2023/07/04 06:45:27;;;;;;;5.30;3.60;;;;;;;36.93;48.52;100478.15;108492;1281;22001;-60
2023/07/04 06:47:52;;;;;;;4.00;2.80;;;;;;;36.96;48.63;100480.73;108485;1274;23437;-70
2023/07/04 06:50:18;;;;;;;4.40;3.20;;;;;;;37.19;49.42;100482.50;108458;1280;21980;-63
2023/07/04 06:52:43;;;;;;;4.20;2.90;;;;;;;37.49;48.84;100481.13;108487;1277;21989;-71
2023/07/04 06:55:09;;;;;;;4.60;2.80;;;;;;;37.74;47.87;100478.91;108500;1276;22019;-60
2023/07/04 06:57:35;;;;;;;5.80;3.30;;;;;;;37.90;47.90;100478.61;108537;1277;21990;-61
2023/07/04 07:00:05;;;;;;;6.00;3.10;;;;;;;38.01;45.08;100475.38;108528;1273;22018;-72
2023/07/04 07:02:31;;;;;;;5.80;3.50;;;;;;;38.03;46.54;100472.61;108542;1275;23779;-70
2023/07/04 07:04:56;;;;;;;4.30;3.00;;;;;;;38.19;46.66;100473.12;108497;1275;21977;-70
2023/07/04 07:07:22;;;;;;;4.40;3.20;;;;;;;38.43;45.58;100473.52;108449;1281;21993;-70
2023/07/04 07:09:48;;;;;;;4.60;3.20;;;;;;;38.56;45.23;100474.81;108483;1272;21999;-70
2023/07/04 07:12:14;;;;;;;5.90;3.70;;;;;;;38.74;44.76;100472.34;108503;1281;21980;-69
2023/07/04 07:14:40;;;;;;;6.10;3.30;;;;;;;38.90;44.63;100476.08;108513;1271;22450;-61
2023/07/04 07:17:05;;;;;;;4.10;3.00;;;;;;;39.04;44.55;100474.50;108509;1276;22014;-60
2023/07/04 07:19:32;;;;;;;7.60;3.00;;;;;;;39.30;45.06;100478.33;108528;1281;22030;-69
2023/07/04 07:22:00;;;;;;;5.70;2.90;;;;;;;39.58;44.41;100477.15;108499;1281;21989;-70
2023/07/04 07:24:30;;;;;;;10.20;3.40;;;;;;;39.78;44.46;100479.30;108520;1281;22017;-70
2023/07/04 07:26:56;;;;;;;4.70;2.90;;;;;;;39.97;43.97;100479.60;108523;1281;21983;-60
2023/07/04 07:29:22;;;;;;;4.10;3.30;;;;;;;40.12;43.44;100476.84;108525;1277;22456;-60
2023/07/04 07:31:50;;;;;;;4.30;3.10;;;;;;;40.22;42.56;100477.44;108505;1281;21992;-70
2023/07/04 07:34:18;;;;;;;15.50;3.80;;;;;;;40.32;41.75;100478.80;108676;1281;21981;-72
2023/07/04 07:36:45;;;;;;;4.40;3.10;;;;;;;40.35;40.97;100483.17;108826;1281;22040;-61
2023/07/04 07:39:15;;;;;;;5.40;2.80;;;;;;;40.43;41.87;100483.20;108927;1276;23737;-71
2023/07/04 07:41:43;;;;;;;7.40;3.60;;;;;;;40.62;40.61;100482.23;108601;1276;21980;-71
2023/07/04 07:44:09;;;;;;;5.90;3.30;;;;;;;40.65;39.37;100482.23;108812;1276;22048;-62
2023/07/04 07:46:35;;;;;;;5.90;3.60;;;;;;;40.59;39.85;100481.17;108704;1276;21945;-61
2023/07/04 07:49:00;;;;;;;6.10;2.90;;;;;;;40.67;40.16;100479.91;108818;1273;21991;-61
2023/07/04 07:51:26;;;;;;;4.70;3.50;;;;;;;40.88;40.39;100480.43;108420;1277;22022;-71
2023/07/04 07:53:56;;;;;;;5.70;3.30;;;;;;;41.11;39.91;100483.17;108436;1281;21995;-62
2023/07/04 07:56:31;;;;;;;7.80;3.30;;;;;;;41.27;37.98;100483.80;108339;1281;23774;-72
2023/07/04 07:59:03;;;;;;;4.90;3.50;;;;;;;41.16;37.03;100486.14;110388;1276;22001;-74
2023/07/04 08:01:33;;;;;;;121.60;11.40;;;;;;;41.19;38.40;100487.39;108429;1281;22018;-60
2023/07/04 08:03:59;;;;;;;;;;;;;;;41.41;38.32;100489.77;108410;1280;22277;-71
2023/07/04 08:06:36;;;;;;;45.70;6.40;;;;;;;41.49;37.47;100483.96;108366;1281;21983;-72
2023/07/04 08:09:03;;;;;;;54.30;7.00;;;;;;;41.40;35.17;100485.12;108404;1281;22036;-71
2023/07/04 08:11:29;;;;;;;42.70;7.20;;;;;;;41.31;37.06;100483.92;108435;1281;22179;-60
2023/07/04 08:13:55;;;;;;;20.30;4.80;;;;;;;41.34;37.32;100484.81;108460;1276;22465;-60
2023/07/04 08:16:30;;;;;;;15.40;4.00;;;;;;;41.45;37.11;100479.10;108416;1281;22021;-61
2023/07/04 08:18:58;;;;;;;5.90;3.70;;;;;;;41.62;37.15;100475.62;108584;1278;21988;-72
2023/07/04 08:21:24;;;;;;;8.20;3.80;;;;;;;41.78;36.55;100477.71;108400;1281;22040;-71
2023/07/04 08:23:50;;;;;;;8.40;3.80;;;;;;;42.08;37.08;100479.75;108494;1270;21981;-70
2023/07/04 08:26:17;;;;;;;9.70;4.50;;;;;;;42.50;36.92;100483.29;108375;1270;21998;-61
2023/07/04 08:28:43;;;;;;;5.90;3.30;;;;;;;42.91;35.48;100482.61;108399;1277;22029;-61
2023/07/04 08:31:10;;;;;;;14.20;4.00;;;;;;;43.08;35.53;100480.13;108448;1272;22022;-71
2023/07/04 08:33:36;;;;;;;6.10;3.90;;;;;;;43.22;34.95;100483.58;108448;1270;22004;-71
2023/07/04 08:36:07;;;;;;;7.20;3.60;;;;;;;43.39;34.51;100487.15;108543;1280;22031;-71
2023/07/04 08:38:33;;;;;;;4.60;3.20;;;;;;;43.42;33.82;100484.52;108455;1281;21988;-70
2023/07/04 08:40:59;;;;;;;5.40;3.10;;;;;;;43.47;34.42;100478.77;108460;1276;21988;-69
2023/07/04 08:43:39;;;;;;;5.30;3.10;;;;;;;43.64;34.80;100476.91;108361;1281;23635;-61
2023/07/04 08:46:05;;;;;;;5.50;3.50;;;;;;;43.98;34.66;100481.68;108456;1281;21993;-70
2023/07/04 08:48:32;;;;;;;3.50;2.80;;;;;;;44.30;34.34;100478.19;109267;1281;22016;-62
2023/07/04 08:50:58;;;;;;;4.70;3.40;;;;;;;44.57;34.11;100480.91;108067;1281;21984;-71
2023/07/04 08:53:26;;;;;;;4.60;3.40;;;;;;;44.60;32.77;100474.06;108473;1269;22037;-71
2023/07/04 08:56:03;;;;;;;6.30;3.70;;;;;;;44.30;31.90;100475.63;108482;1281;22021;-71
2023/07/04 08:58:45;;;;;;;7.10;3.70;;;;;;;43.75;30.21;100475.77;108461;1281;22077;-62
2023/07/04 09:01:15;;;;;;;6.30;3.50;;;;;;;43.36;31.73;100480.25;108432;1281;21973;-63
2023/07/04 09:04:07;;;;;;;5.50;3.00;;;;;;;43.31;31.76;100481.17;108526;1276;23055;-68
2023/07/04 09:06:40;;;;;;;5.20;3.60;;;;;;;43.54;32.34;100480.18;108406;1281;21978;-71
2023/07/04 09:09:26;;;;;;;4.80;3.40;;;;;;;43.99;32.47;100479.82;108477;1274;21983;-62
2023/07/04 09:11:51;;;;;;;4.90;3.10;;;;;;;44.41;32.32;100481.05;108492;1273;22005;-62
2023/07/04 09:14:33;;;;;;;4.70;3.10;;;;;;;44.80;32.27;100480.27;108317;1277;23441;-62
2023/07/04 09:17:00;;;;;;;5.40;3.20;;;;;;;45.18;32.00;100482.16;108421;1281;22636;-62
2023/07/04 09:19:34;;;;;;;6.70;3.10;;;;;;;45.42;31.02;100482.25;108474;1281;21990;-71
2023/07/04 09:22:04;;;;;;;5.20;3.60;;;;;;;45.35;31.00;100476.22;108478;1280;23740;-62
2023/07/04 09:24:30;;;;;;;3.40;3.10;;;;;;;45.26;30.13;100477.09;108295;1281;22000;-62
2023/07/04 09:26:56;;;;;;;7.10;3.10;;;;;;;45.29;30.41;100472.84;108458;1281;22021;-62
2023/07/04 09:29:23;;;;;;;8.60;3.50;;;;;;;45.39;30.77;100472.07;108464;1280;21964;-70
2023/07/04 09:31:53;;;;;;;4.80;3.30;;;;;;;45.70;30.79;100473.64;108504;1276;21988;-62
2023/07/04 09:34:24;;;;;;;4.90;3.40;;;;;;;46.06;30.34;100468.36;108458;1276;21992;-62
2023/07/04 09:36:51;;;;;;;10.50;3.70;;;;;;;46.23;28.24;100469.61;108459;1281;21983;-61
2023/07/04 09:39:16;;;;;;;10.00;3.50;;;;;;;46.15;29.43;100471.29;108456;1270;22055;-61
2023/07/04 09:41:42;;;;;;;4.90;3.30;;;;;;;46.26;29.25;100474.23;108495;1281;21994;-60
2023/07/04 09:44:28;;;;;;;13.00;3.60;;;;;;;46.13;28.41;100472.37;108070;1282;21992;-60
2023/07/04 09:46:54;;;;;;;6.70;3.50;;;;;;;46.09;29.01;100469.41;108444;1281;21983;-71
2023/07/04 09:49:26;;;;;;;5.20;3.30;;;;;;;46.26;28.41;100467.61;108315;1281;22018;-61
2023/07/04 09:52:13;;;;;;;5.40;3.20;;;;;;;46.47;28.96;100464.25;108467;1281;21997;-60
2023/07/04 09:54:40;;;;;;;4.80;3.30;;;;;;;46.85;29.16;100468.10;108408;1281;21990;-70
2023/07/04 09:57:15;;;;;;;5.40;3.20;;;;;;;47.20;28.96;100468.52;108474;1277;21992;-70
2023/07/04 09:59:41;;;;;;;7.60;3.60;;;;;;;47.50;28.60;100469.39;108521;1270;22003;-71
2023/07/04 10:02:25;;;;;;;5.60;3.50;;;;;;;47.73;28.56;100470.67;108433;1276;21953;-64
2023/07/04 10:04:51;;;;;;;7.10;3.40;;;;;;;47.75;28.13;100470.98;108392;1281;21982;-62
2023/07/04 10:07:20;;;;;;;6.70;3.30;;;;;;;47.70;27.83;100467.30;108454;1276;22004;-74
2023/07/04 10:09:54;;;;;;;6.90;3.70;;;;;;;47.43;26.96;100468.43;108508;1281;23793;-63
2023/07/04 10:12:20;;;;;;;4.90;3.20;;;;;;;47.17;27.55;100466.91;108489;1281;22018;-62
2023/07/04 10:14:48;;;;;;;5.80;3.20;;;;;;;47.12;27.98;100467.19;108413;1281;21983;-73
2023/07/04 10:17:18;;;;;;;4.00;3.20;;;;;;;47.16;27.38;100461.45;108425;1281;21979;-71
2023/07/04 10:19:46;;;;;;;6.60;2.80;;;;;;;47.10;27.52;100458.73;108479;1276;21981;-62
2023/07/04 10:22:12;;;;;;;4.50;3.30;;;;;;;47.23;26.94;100464.27;108522;1270;21997;-64
2023/07/04 10:24:38;;;;;;;5.30;2.80;;;;;;;47.37;27.10;100463.86;108471;1276;21998;-71
2023/07/04 10:27:11;;;;;;;5.30;3.00;;;;;;;47.55;26.89;100459.36;108457;1281;21990;-64
2023/07/04 10:29:48;;;;;;;4.80;3.10;;;;;;;47.72;27.08;100460.52;108301;1282;21994;-73
2023/07/04 10:32:15;;;;;;;4.70;2.90;;;;;;;47.96;26.82;100459.34;108312;1273;21991;-63
2023/07/04 10:34:47;;;;;;;3.60;3.00;;;;;;;47.96;25.01;100458.31;108468;1276;21986;-73
2023/07/04 10:37:28;;;;;;;4.70;2.90;;;;;;;47.87;26.08;100454.73;108228;1277;21984;-63
2023/07/04 10:39:58;;;;;;;6.80;2.80;;;;;;;48.09;26.28;100454.45;108434;1276;21988;-72
2023/07/04 10:42:25;;;;;;;4.00;3.10;;;;;;;48.05;25.04;100449.08;108442;1275;21983;-63
2023/07/04 10:44:52;;;;;;;4.60;3.00;;;;;;;47.57;24.70;100441.81;108524;1273;21989;-62
2023/07/04 10:47:31;;;;;;;4.80;3.50;;;;;;;47.33;24.53;100435.29;108403;1281;22446;-72
2023/07/04 10:50:03;;;;;;;4.20;3.20;;;;;;;47.21;25.41;100435.94;108304;1282;21983;-63
2023/07/04 10:52:31;;;;;;;4.20;3.20;;;;;;;47.33;25.14;100436.78;108470;1280;21983;-71
2023/07/04 10:54:58;;;;;;;4.50;3.00;;;;;;;47.50;25.37;100437.28;108465;1281;21976;-71
2023/07/04 10:57:35;;;;;;;4.90;3.00;;;;;;;47.76;25.54;100434.01;108487;1281;21989;-64
2023/07/04 11:00:23;;;;;;;4.00;2.80;;;;;;;47.95;25.30;100436.51;108454;1277;22161;-63
2023/07/04 11:02:52;;;;;;;5.80;3.20;;;;;;;47.94;25.09;100438.23;108466;1281;21992;-71
2023/07/04 11:05:24;;;;;;;6.40;3.20;;;;;;;47.86;25.06;100435.41;108431;1280;21980;-72
2023/07/04 11:07:51;;;;;;;5.70;2.90;;;;;;;47.77;24.96;100428.84;108414;1281;24042;-62
2023/07/04 11:10:19;;;;;;;5.90;2.90;;;;;;;47.75;25.09;100427.87;108491;1270;21983;-72
2023/07/04 11:12:44;;;;;;;5.80;3.10;;;;;;;47.80;25.09;100427.80;108125;1273;22195;-62
2023/07/04 11:15:22;;;;;;;5.50;3.50;;;;;;;47.82;24.20;100427.08;108285;1280;22005;-63
2023/07/04 11:17:49;;;;;;;5.40;3.30;;;;;;;47.49;23.80;100425.62;108529;1280;22045;-63
2023/07/04 11:20:22;;;;;;;4.50;2.80;;;;;;;47.21;23.82;100426.13;108309;1280;21986;-65